createdAt,value
2023-04-02T00:00:06.428Z,3.47
2023-04-02T00:02:33.839Z,3.25
2023-04-02T00:05:19.819Z,3.72
2023-04-02T00:07:51.808Z,3.72
2023-04-02T00:10:35.866Z,3.45
2023-04-02T00:13:04.082Z,3.78
2023-04-02T00:15:31.764Z,3.65
2023-04-02T00:18:00.185Z,3.85
2023-04-02T00:20:28.712Z,3.92
2023-04-02T00:22:56.758Z,3.83
2023-04-02T00:25:28.196Z,4.40
2023-04-02T00:27:56.208Z,3.95
2023-04-02T00:30:23.214Z,4.35
2023-04-02T00:32:50.052Z,4.20
2023-04-02T00:35:26.196Z,2.95
2023-04-02T00:37:53.437Z,3.67
2023-04-02T00:40:26.960Z,2.60
2023-04-02T00:42:56.112Z,2.88
2023-04-02T00:45:29.416Z,3.47
2023-04-02T00:48:13.339Z,3.13
2023-04-02T00:50:42.978Z,4.05
2023-04-02T00:53:17.514Z,3.40
2023-04-02T00:55:44.437Z,3.72
2023-04-02T00:58:34.355Z,3.47
2023-04-02T01:01:01.717Z,2.35
2023-04-02T01:03:39.290Z,3.03
2023-04-02T01:06:11.113Z,3.58
2023-04-02T01:08:56.618Z,3.80
2023-04-02T01:12:08.344Z,2.72
2023-04-02T01:14:40.904Z,3.42
2023-04-02T01:17:18.743Z,3.33
2023-04-02T01:20:08.041Z,3.47
2023-04-02T01:22:35.335Z,3.65
2023-04-02T01:25:04.756Z,3.15
2023-04-02T01:27:39.934Z,2.92
2023-04-02T01:30:08.162Z,3.28
2023-04-02T01:32:35.805Z,3.13
2023-04-02T01:35:02.560Z,3.38
2023-04-02T01:37:58.272Z,3.70
2023-04-02T01:40:46.451Z,3.40
2023-04-02T01:43:33.383Z,3.88
2023-04-02T01:46:05.957Z,3.70
2023-04-02T01:48:32.819Z,2.78
2023-04-02T01:51:01.096Z,3.28
2023-04-02T01:53:30.525Z,3.40
2023-04-02T01:56:00.181Z,2.45
2023-04-02T01:58:31.479Z,3.70
2023-04-02T02:01:12.524Z,2.88
2023-04-02T02:03:42.303Z,2.83
2023-04-02T02:06:13.040Z,3.05
2023-04-02T02:09:03.968Z,2.17
2023-04-02T02:11:32.559Z,2.20
2023-04-02T02:14:05.791Z,2.80
2023-04-02T02:16:41.944Z,2.97
2023-04-02T02:19:21.975Z,2.22
2023-04-02T02:21:56.666Z,1.42
2023-04-02T02:24:31.840Z,1.70
2023-04-02T02:27:13.672Z,2.22
2023-04-02T02:29:42.987Z,2.38
2023-04-02T02:32:13.146Z,2.30
2023-04-02T02:34:46.608Z,2.42
2023-04-02T02:37:23.603Z,2.92
2023-04-02T02:39:55.192Z,2.20
2023-04-02T02:42:25.127Z,2.08
2023-04-02T02:44:54.329Z,1.63
2023-04-02T02:47:29.592Z,3.05
2023-04-02T02:50:07.343Z,2.38
2023-04-02T02:52:38.694Z,2.53
2023-04-02T02:55:10.935Z,1.95
2023-04-02T02:57:43.420Z,2.25
2023-04-02T03:00:16.268Z,1.92
2023-04-02T03:02:44.969Z,1.80
2023-04-02T03:05:19.413Z,1.90
2023-04-02T03:07:46.318Z,1.88
2023-04-02T03:10:13.346Z,1.77
2023-04-02T03:12:54.870Z,1.88
2023-04-02T03:15:34.061Z,1.85
2023-04-02T03:18:08.854Z,2.70
2023-04-02T03:20:48.177Z,1.92
2023-04-02T03:23:28.057Z,2.10
2023-04-02T03:26:16.435Z,2.00
2023-04-02T03:28:47.770Z,1.15
2023-04-02T03:31:24.749Z,2.17
2023-04-02T03:33:56.957Z,1.92
2023-04-02T03:36:31.100Z,1.83
2023-04-02T03:39:12.373Z,1.40
2023-04-02T03:41:48.044Z,1.70
2023-04-02T03:44:26.260Z,2.13
2023-04-02T03:46:57.817Z,1.45
2023-04-02T03:49:31.507Z,1.15
2023-04-02T03:52:13.873Z,2.03
2023-04-02T03:54:53.822Z,1.40
2023-04-02T03:57:37.039Z,1.73
2023-04-02T04:00:17.513Z,1.38
2023-04-02T04:02:55.030Z,2.58
2023-04-02T04:05:28.864Z,1.58
2023-04-02T04:08:02.408Z,1.95
2023-04-02T04:10:30.723Z,1.83
2023-04-02T04:13:06.056Z,2.17
2023-04-02T04:15:43.093Z,1.27
2023-04-02T04:18:35.166Z,2.05
2023-04-02T04:21:05.827Z,1.92
2023-04-02T04:23:36.326Z,1.52
2023-04-02T04:26:12.061Z,1.90
2023-04-02T04:28:47.834Z,2.08
2023-04-02T04:31:18.210Z,1.83
2023-04-02T04:33:50.778Z,1.77
2023-04-02T04:36:32.933Z,1.50
2023-04-02T04:39:06.339Z,1.52
2023-04-02T04:41:37.796Z,1.80
2023-04-02T04:44:08.130Z,1.40
2023-04-02T04:49:28.383Z,2.33
2023-04-02T04:51:58.727Z,1.33
2023-04-02T04:54:29.156Z,1.88
2023-04-02T04:57:01.339Z,1.35
2023-04-02T04:59:42.942Z,1.73
2023-04-02T05:02:20.197Z,1.33
2023-04-02T05:04:52.302Z,1.73
2023-04-02T05:07:26.182Z,2.10
2023-04-02T05:10:18.800Z,1.65
2023-04-02T05:12:59.753Z,2.28
2023-04-02T05:15:36.366Z,1.92
2023-04-02T05:18:42.018Z,1.60
2023-04-02T05:21:21.061Z,1.52
2023-04-02T05:24:18.221Z,1.70
2023-04-02T05:26:47.781Z,1.67
2023-04-02T05:29:22.776Z,1.73
2023-04-02T05:32:04.356Z,2.08
2023-04-02T05:34:37.341Z,1.92
2023-04-02T05:37:07.044Z,1.63
2023-04-02T05:39:34.180Z,2.00
2023-04-02T05:42:06.609Z,1.75
2023-04-02T05:44:49.022Z,2.50
2023-04-02T05:47:23.140Z,2.08
2023-04-02T05:50:12.048Z,2.00
2023-04-02T05:52:52.066Z,1.48
2023-04-02T05:56:03.628Z,1.80
2023-04-02T05:58:48.334Z,1.50
2023-04-02T06:01:29.674Z,1.92
2023-04-02T06:04:28.509Z,2.92
2023-04-02T06:07:12.436Z,1.50
2023-04-02T06:09:56.674Z,2.03
2023-04-02T06:12:38.316Z,1.40
2023-04-02T06:15:07.017Z,1.58
2023-04-02T06:17:46.913Z,1.30
2023-04-02T06:20:16.894Z,1.70
2023-04-02T06:22:47.514Z,2.13
2023-04-02T06:25:33.110Z,1.80
2023-04-02T06:28:04.044Z,2.55
2023-04-02T06:30:37.835Z,1.92
2023-04-02T06:33:05.118Z,2.38
2023-04-02T06:35:34.934Z,1.80
2023-04-02T06:38:06.201Z,2.00
2023-04-02T06:40:52.339Z,1.48
2023-04-02T06:43:33.706Z,2.25
2023-04-02T06:46:06.347Z,1.50
2023-04-02T06:48:34.537Z,1.95
2023-04-02T06:51:08.462Z,1.17
2023-04-02T06:53:47.749Z,1.65
2023-04-02T06:56:48.016Z,1.55
2023-04-02T06:59:16.615Z,1.50
2023-04-02T07:02:16.813Z,2.38
2023-04-02T07:04:43.770Z,1.70
2023-04-02T07:07:10.488Z,2.25
2023-04-02T07:09:37.167Z,1.45
2023-04-02T07:12:11.552Z,4.00
2023-04-02T07:14:38.436Z,1.98
2023-04-02T07:17:05.238Z,1.60
2023-04-02T07:19:31.982Z,1.70
2023-04-02T07:21:59.147Z,1.92
2023-04-02T07:24:25.803Z,1.50
2023-04-02T07:26:52.485Z,1.80
2023-04-02T07:29:20.067Z,2.22
2023-04-02T07:31:46.926Z,1.83
2023-04-02T07:34:13.858Z,1.60
2023-04-02T07:36:40.737Z,1.30
2023-04-02T07:39:07.525Z,1.70
2023-04-02T07:41:34.173Z,1.13
2023-04-02T07:44:00.917Z,1.35
2023-04-02T07:46:27.630Z,1.10
2023-04-02T07:48:54.417Z,1.30
2023-04-02T07:51:24.254Z,1.25
2023-04-02T07:53:56.277Z,1.02
2023-04-02T07:56:25.163Z,2.05
2023-04-02T07:58:51.973Z,1.92
2023-04-02T08:01:27.001Z,0.82
2023-04-02T08:03:55.286Z,1.40
2023-04-02T08:06:23.065Z,1.63
2023-04-02T08:08:50.971Z,0.98
2023-04-02T08:11:17.784Z,1.60
2023-04-02T08:13:44.751Z,1.60
2023-04-02T08:16:11.959Z,2.13
2023-04-02T08:18:39.132Z,1.02
2023-04-02T08:21:08.838Z,3.92
2023-04-02T08:23:36.185Z,1.83
2023-04-02T08:26:03.546Z,1.88
2023-04-02T08:28:30.396Z,1.70
2023-04-02T08:30:57.292Z,1.25
2023-04-02T08:33:24.034Z,1.73
2023-04-02T08:35:51.362Z,2.00
2023-04-02T08:38:21.760Z,1.10
2023-04-02T08:40:56.366Z,1.65
2023-04-02T08:43:39.120Z,1.17
2023-04-02T08:46:08.914Z,1.38
2023-04-02T08:48:40.751Z,1.15
2023-04-02T08:51:23.352Z,0.85
2023-04-02T08:53:52.898Z,1.05
2023-04-02T08:56:29.603Z,1.25
2023-04-02T08:59:25.978Z,1.02
2023-04-02T09:01:57.958Z,1.02
2023-04-02T09:04:26.738Z,1.50
2023-04-02T09:06:56.847Z,1.27
2023-04-02T09:09:25.079Z,1.17
2023-04-02T09:12:04.284Z,1.80
2023-04-02T09:14:42.343Z,1.70
2023-04-02T09:17:21.427Z,1.42
2023-04-02T09:20:19.831Z,2.03
2023-04-02T09:22:48.803Z,1.00
2023-04-02T09:25:21.424Z,1.48
2023-04-02T09:27:54.751Z,1.20
2023-04-02T09:30:33.710Z,1.30
2023-04-02T09:33:08.049Z,1.23
2023-04-02T09:35:37.810Z,1.33
2023-04-02T09:38:22.100Z,1.63
2023-04-02T09:41:02.933Z,1.23
2023-04-02T09:43:38.267Z,1.23
2023-04-02T09:46:06.716Z,1.05
2023-04-02T09:48:40.950Z,1.08
2023-04-02T09:51:16.607Z,1.40
2023-04-02T09:53:46.023Z,0.90
2023-04-02T09:56:20.023Z,1.10
2023-04-02T09:59:04.477Z,0.90
2023-04-02T10:01:35.768Z,1.88
2023-04-02T10:04:04.972Z,1.90
2023-04-02T10:06:34.218Z,1.17
2023-04-02T10:09:21.741Z,1.20
2023-04-02T10:11:50.537Z,1.30
2023-04-02T10:14:24.336Z,1.50
2023-04-02T10:17:12.126Z,2.20
2023-04-02T10:20:06.542Z,1.25
2023-04-02T10:22:33.436Z,1.95
2023-04-02T10:25:00.149Z,1.50
2023-04-02T10:27:44.944Z,1.60
2023-04-02T10:30:16.135Z,1.90
2023-04-02T10:33:03.526Z,2.88
2023-04-02T10:35:47.432Z,4.10
2023-04-02T10:38:34.215Z,2.55
2023-04-02T10:41:19.062Z,1.55
2023-04-02T10:43:55.911Z,2.20
2023-04-02T10:46:33.535Z,2.75
2023-04-02T10:49:13.993Z,1.30
2023-04-02T10:51:59.435Z,2.90
2023-04-02T10:54:44.536Z,2.80
2023-04-02T10:57:36.061Z,3.58
2023-04-02T11:00:11.592Z,3.10
2023-04-02T11:03:03.152Z,2.20
2023-04-02T11:05:46.916Z,1.20
2023-04-02T11:08:48.988Z,1.83
2023-04-02T11:11:20.304Z,2.10
2023-04-02T11:13:55.858Z,2.15
2023-04-02T11:16:23.621Z,1.52
2023-04-02T11:19:19.086Z,1.60
2023-04-02T11:21:59.599Z,1.75
2023-04-02T11:24:30.598Z,1.42
2023-04-02T11:27:14.598Z,2.50
2023-04-02T11:29:45.114Z,1.52
2023-04-02T11:32:22.161Z,1.55
2023-04-02T11:34:56.387Z,1.52
2023-04-02T11:37:39.859Z,1.25
2023-04-02T11:40:14.058Z,1.20
2023-04-02T11:42:41.080Z,1.27
2023-04-02T11:45:22.977Z,1.20
2023-04-02T11:48:08.473Z,2.38
2023-04-02T11:50:40.579Z,1.30
2023-04-02T11:53:16.461Z,1.48
2023-04-02T11:55:44.755Z,1.25
2023-04-02T11:58:29.423Z,1.00
2023-04-02T12:01:20.990Z,1.00
2023-04-02T12:04:02.670Z,1.30
2023-04-02T12:06:47.601Z,1.17
2023-04-02T12:09:28.134Z,1.33
2023-04-02T12:11:58.180Z,0.98
2023-04-02T12:14:36.826Z,1.00
2023-04-02T12:17:21.742Z,1.00
2023-04-02T12:20:20.525Z,1.15
2023-04-02T12:22:51.185Z,1.00
2023-04-02T12:25:33.394Z,1.00
2023-04-02T12:28:14.719Z,0.88
2023-04-02T12:30:41.854Z,1.23
2023-04-02T12:33:20.663Z,1.90
2023-04-02T12:35:49.376Z,1.40
2023-04-02T12:38:26.027Z,1.52
2023-04-02T12:41:04.896Z,1.20
2023-04-02T12:43:34.101Z,1.20
2023-04-02T12:46:06.660Z,1.10
2023-04-02T12:48:35.098Z,1.02
2023-04-02T12:51:04.343Z,1.50
2023-04-02T12:53:40.646Z,1.08
2023-04-02T12:56:11.321Z,1.08
2023-04-02T12:58:41.654Z,0.85
2023-04-02T13:01:18.742Z,1.08
2023-04-02T13:04:07.308Z,1.15
2023-04-02T13:09:05.369Z,0.88
2023-04-02T13:11:41.716Z,1.40
2023-04-02T13:14:18.859Z,0.98
2023-04-02T13:16:46.335Z,1.13
2023-04-02T13:19:33.523Z,1.10
2023-04-02T13:22:03.095Z,1.17
2023-04-02T13:24:32.607Z,1.20
2023-04-02T13:27:01.631Z,1.02
2023-04-02T13:29:28.564Z,1.33
2023-04-02T13:32:01.841Z,0.90
2023-04-02T13:34:28.928Z,1.10
2023-04-02T13:36:57.487Z,1.38
2023-04-02T13:39:24.802Z,1.13
2023-04-02T13:42:03.287Z,0.80
2023-04-02T13:44:32.490Z,1.15
2023-04-02T13:46:59.895Z,1.30
2023-04-02T13:49:27.816Z,0.70
2023-04-02T13:52:00.963Z,1.00
2023-04-02T13:54:49.126Z,1.05
2023-04-02T13:57:16.118Z,1.40
2023-04-02T13:59:43.008Z,1.00
2023-04-02T14:02:14.377Z,1.15
2023-04-02T14:04:48.690Z,1.05
2023-04-02T14:07:32.661Z,1.02
2023-04-02T14:10:28.714Z,1.50
2023-04-02T14:13:08.444Z,1.05
2023-04-02T14:16:04.752Z,0.80
2023-04-02T14:18:46.402Z,1.33
2023-04-02T14:21:43.221Z,1.10
2023-04-02T14:24:19.182Z,0.63
2023-04-02T14:26:57.904Z,0.95
2023-04-02T14:30:03.628Z,1.17
2023-04-02T14:32:55.042Z,0.90
2023-04-02T14:35:28.904Z,1.02
2023-04-02T14:37:58.717Z,1.33
2023-04-02T14:40:49.684Z,1.20
2023-04-02T14:43:23.826Z,1.30
2023-04-02T14:46:00.373Z,1.08
2023-04-02T14:48:36.255Z,1.23
2023-04-02T14:53:58.323Z,0.88
2023-04-02T14:56:26.077Z,1.10
2023-04-02T14:59:22.826Z,1.13
2023-04-02T15:01:54.724Z,1.08
2023-04-02T15:04:31.129Z,0.88
2023-04-02T15:07:05.731Z,1.10
2023-04-02T15:09:38.932Z,1.02
2023-04-02T15:12:23.812Z,0.90
2023-04-02T15:15:40.042Z,0.90
2023-04-02T15:18:17.627Z,1.02
2023-04-02T15:21:08.585Z,1.50
2023-04-02T15:23:44.297Z,1.25
2023-04-02T15:26:13.849Z,1.17
2023-04-02T15:29:29.024Z,1.30
2023-04-02T15:32:16.149Z,1.30
2023-04-02T15:34:57.798Z,1.40
2023-04-02T15:37:49.248Z,1.70
2023-04-02T15:40:21.874Z,1.67
2023-04-02T15:43:14.619Z,1.05
2023-04-02T15:46:04.602Z,1.10
2023-04-02T15:48:55.284Z,1.45
2023-04-02T15:51:33.187Z,1.17
2023-04-02T15:54:20.934Z,1.25
2023-04-02T15:57:18.776Z,1.20
2023-04-02T16:00:04.078Z,1.00
2023-04-02T16:02:46.266Z,1.08
2023-04-02T16:06:13.105Z,1.10
2023-04-02T16:08:45.142Z,0.90
2023-04-02T16:11:14.913Z,1.40
2023-04-02T16:16:26.030Z,1.10
2023-04-02T16:19:16.631Z,1.00
2023-04-02T16:21:54.615Z,1.50
2023-04-02T16:24:21.494Z,2.10
2023-04-02T16:26:57.726Z,1.00
2023-04-02T16:29:27.481Z,1.20
2023-04-02T16:32:05.846Z,1.38
2023-04-02T16:35:01.792Z,0.93
2023-04-02T16:38:24.508Z,1.35
2023-04-02T16:41:07.680Z,1.25
2023-04-02T16:43:49.408Z,1.25
2023-04-02T16:47:10.385Z,1.40
2023-04-02T16:49:47.293Z,1.10
2023-04-02T16:52:13.926Z,1.00
2023-04-02T16:55:12.676Z,1.20
2023-04-02T16:58:06.782Z,1.10
2023-04-02T17:00:50.309Z,1.30
2023-04-02T17:03:41.997Z,1.65
2023-04-02T17:06:29.854Z,1.77
2023-04-02T17:09:05.857Z,1.00
2023-04-02T17:11:48.353Z,1.00
2023-04-02T17:16:51.568Z,1.25
2023-04-02T17:19:20.979Z,1.40
2023-04-02T17:21:52.299Z,1.52
2023-04-02T17:24:28.278Z,1.90
2023-04-02T17:27:00.902Z,1.10
2023-04-02T17:29:35.957Z,1.40
2023-04-02T17:32:06.349Z,1.33
2023-04-02T17:34:33.123Z,1.42
2023-04-02T17:37:23.940Z,1.52
2023-04-02T17:40:02.590Z,1.65
2023-04-02T17:42:35.427Z,1.55
2023-04-02T17:45:11.129Z,1.40
2023-04-02T17:48:13.157Z,1.48
2023-04-02T17:50:49.403Z,1.65
2023-04-02T17:56:27.946Z,1.45
2023-04-02T17:59:49.043Z,1.20
2023-04-02T18:02:43.664Z,1.42
2023-04-02T18:05:10.654Z,1.30
2023-04-02T18:07:47.027Z,1.67
2023-04-02T18:10:25.176Z,1.77
2023-04-02T18:12:55.527Z,1.38
2023-04-02T18:15:58.420Z,1.38
2023-04-02T18:18:50.179Z,3.72
2023-04-02T18:21:58.365Z,1.80
2023-04-02T18:24:43.172Z,1.80
2023-04-02T18:27:22.076Z,1.52
2023-04-02T18:29:48.810Z,1.60
2023-04-02T18:32:53.030Z,2.20
2023-04-02T18:35:25.903Z,1.88
2023-04-02T18:38:13.716Z,2.08
2023-04-02T18:41:05.360Z,1.35
2023-04-02T18:43:44.141Z,2.30
2023-04-02T18:46:22.970Z,1.48
2023-04-02T18:49:00.098Z,1.55
2023-04-02T18:51:32.097Z,1.77
2023-04-02T18:54:35.800Z,1.92
2023-04-02T18:57:14.832Z,1.35
2023-04-02T18:59:48.955Z,2.15
2023-04-02T19:02:34.538Z,1.73
2023-04-02T19:05:13.848Z,1.50
2023-04-02T19:07:43.659Z,1.80
2023-04-02T19:10:31.937Z,1.48
2023-04-02T19:12:58.641Z,1.58
2023-04-02T19:15:38.651Z,1.90
2023-04-02T19:18:28.565Z,1.30
2023-04-02T19:21:07.084Z,1.65
2023-04-02T19:23:37.753Z,2.03
2023-04-02T19:26:14.335Z,2.38
2023-04-02T19:28:46.630Z,1.95
2023-04-02T19:31:33.871Z,2.10
2023-04-02T19:34:12.044Z,1.52
2023-04-02T19:37:02.052Z,1.83
2023-04-02T19:39:53.866Z,1.95
2023-04-02T19:42:29.831Z,1.73
2023-04-02T19:44:57.252Z,1.63
2023-04-02T19:47:24.773Z,1.65
2023-04-02T19:49:51.896Z,1.40
2023-04-02T19:52:19.708Z,1.80
2023-04-02T19:54:46.519Z,2.03
2023-04-02T19:57:15.790Z,2.00
2023-04-02T19:59:42.702Z,2.45
2023-04-02T20:02:10.796Z,2.20
2023-04-02T20:04:38.042Z,2.00
2023-04-02T20:07:04.776Z,1.52
2023-04-02T20:09:31.559Z,1.67
2023-04-02T20:11:58.391Z,1.90
2023-04-02T20:14:25.078Z,2.38
2023-04-02T20:16:52.133Z,1.70
2023-04-02T20:19:19.044Z,1.75
2023-04-02T20:21:45.848Z,1.75
2023-04-02T20:24:12.614Z,1.40
2023-04-02T20:26:39.379Z,1.55
2023-04-02T20:29:06.150Z,2.40
2023-04-02T20:31:34.622Z,1.48
2023-04-02T20:34:02.966Z,1.40
2023-04-02T20:36:30.246Z,1.40
2023-04-02T20:38:57.713Z,1.25
2023-04-02T20:41:24.676Z,1.67
2023-04-02T20:43:51.575Z,1.58
2023-04-02T20:46:18.455Z,1.20
2023-04-02T20:48:45.451Z,1.23
2023-04-02T20:51:14.820Z,1.27
2023-04-02T20:53:41.663Z,1.08
2023-04-02T20:56:14.661Z,0.75
2023-04-02T20:58:42.359Z,1.20
2023-04-02T21:01:16.393Z,1.17
2023-04-02T21:03:43.933Z,0.65
2023-04-02T21:06:16.007Z,1.20
2023-04-02T21:08:43.452Z,1.20
2023-04-02T21:11:11.011Z,1.63
2023-04-02T21:13:38.628Z,1.23
2023-04-02T21:16:21.860Z,0.98
2023-04-02T21:18:51.509Z,1.20
2023-04-02T21:21:19.507Z,1.13
2023-04-02T21:23:46.901Z,0.80
2023-04-02T21:26:16.902Z,1.10
2023-04-02T21:28:44.554Z,1.08
2023-04-02T21:31:38.093Z,1.10
2023-04-02T21:34:06.267Z,1.02
2023-04-02T21:36:35.892Z,0.90
2023-04-02T21:39:06.249Z,1.00
2023-04-02T21:41:38.997Z,0.80
2023-04-02T21:44:07.597Z,0.93
2023-04-02T21:46:39.729Z,1.23
2023-04-02T21:49:08.562Z,1.30
2023-04-02T21:51:37.150Z,1.33
2023-04-02T21:54:04.212Z,1.38
2023-04-02T21:56:33.500Z,0.93
2023-04-02T21:59:02.207Z,1.20
2023-04-02T22:01:35.704Z,1.10
2023-04-02T22:04:05.312Z,1.23
2023-04-02T22:06:37.025Z,1.17
2023-04-02T22:09:07.231Z,1.40
2023-04-02T22:11:36.973Z,1.20
2023-04-02T22:14:04.836Z,1.30
2023-04-02T22:16:33.756Z,1.10
2023-04-02T22:19:02.389Z,1.02
2023-04-02T22:21:31.253Z,1.52
2023-04-02T22:24:02.422Z,1.10
2023-04-02T22:26:31.421Z,1.55
2023-04-02T22:28:58.814Z,1.13
2023-04-02T22:31:28.543Z,1.50
2023-04-02T22:33:57.036Z,1.95
2023-04-02T22:36:25.069Z,1.42
2023-04-02T22:38:52.042Z,1.45
2023-04-02T22:41:25.800Z,1.30
2023-04-02T22:43:55.766Z,1.35
2023-04-02T22:46:23.091Z,1.20
2023-04-02T22:48:50.436Z,1.45
2023-04-02T22:51:20.099Z,1.25
2023-04-02T22:53:47.147Z,1.20
2023-04-02T22:56:20.331Z,1.77
2023-04-02T22:58:47.058Z,1.10
2023-04-02T23:01:43.667Z,1.83
2023-04-02T23:04:10.455Z,1.50
2023-04-02T23:06:37.130Z,1.25
2023-04-02T23:09:04.358Z,1.15
2023-04-02T23:11:31.035Z,1.15
2023-04-02T23:13:58.433Z,1.50
2023-04-02T23:16:28.455Z,1.35
2023-04-02T23:18:56.617Z,1.25
2023-04-02T23:21:24.813Z,1.23
2023-04-02T23:23:52.144Z,1.10
2023-04-02T23:26:21.972Z,1.50
2023-04-02T23:28:49.656Z,1.30
2023-04-02T23:31:19.829Z,1.40
2023-04-02T23:33:46.538Z,1.33
2023-04-02T23:36:33.653Z,1.40
2023-04-02T23:39:09.662Z,1.40
2023-04-02T23:41:38.328Z,1.33
2023-04-02T23:44:05.394Z,1.55
2023-04-02T23:46:33.118Z,1.63
2023-04-02T23:49:00.839Z,1.83
2023-04-02T23:51:29.124Z,1.25
2023-04-02T23:53:56.485Z,1.33
2023-04-02T23:56:23.307Z,1.52
2023-04-02T23:58:51.050Z,1.50
